createdAt,value
2016-06-20T00:00:52.634Z,52.04
2016-06-20T00:01:51.965Z,51.85
2016-06-20T00:02:52.594Z,52.43
2016-06-20T00:03:51.925Z,52.43
2016-06-20T00:04:52.569Z,52.43
2016-06-20T00:05:51.916Z,52.43
2016-06-20T00:06:51.888Z,52.53
2016-06-20T00:07:52.533Z,51.85
2016-06-20T00:08:51.864Z,51.85
2016-06-20T00:09:51.868Z,52.23
2016-06-20T00:10:51.840Z,52.33
2016-06-20T00:11:52.484Z,51.75
2016-06-20T00:12:52.472Z,52.14
2016-06-20T00:13:51.803Z,52.33
2016-06-20T00:14:51.791Z,52.33
2016-06-20T00:15:51.779Z,52.91
2016-06-20T00:16:52.423Z,53.08
2016-06-20T00:17:52.410Z,52.4
2016-06-20T00:18:51.743Z,52.72
2016-06-20T00:19:52.356Z,52.91
2016-06-20T00:20:51.734Z,53.01
2016-06-20T00:21:52.346Z,52.91
2016-06-20T00:22:52.335Z,53.47
2016-06-20T00:23:51.666Z,53.08
2016-06-20T00:24:52.310Z,53.08
2016-06-20T00:25:51.657Z,52.79
2016-06-20T00:26:51.629Z,52.53
2016-06-20T00:27:52.275Z,52.14
2016-06-20T00:28:51.621Z,52.14
2016-06-20T00:29:52.249Z,52.43
2016-06-20T00:30:51.580Z,51.75
2016-06-20T00:31:52.209Z,52.43
2016-06-20T00:32:51.557Z,52.53
2016-06-20T00:33:51.545Z,52.43
2016-06-20T00:34:52.173Z,52.23
2016-06-20T00:35:52.161Z,52.91
2016-06-20T00:36:51.509Z,52.53
2016-06-20T00:37:51.496Z,52.62
2016-06-20T00:38:51.483Z,53.01
2016-06-20T00:39:51.472Z,53.47
2016-06-20T00:40:51.444Z,53.2
2016-06-20T00:41:51.447Z,52.81
2016-06-20T00:42:52.076Z,53.3
2016-06-20T00:43:52.064Z,53.27
2016-06-20T00:44:51.395Z,53.37
2016-06-20T00:45:52.040Z,53.49
2016-06-20T00:46:51.371Z,54.24
2016-06-20T00:47:51.359Z,54.24
2016-06-20T00:48:52.003Z,53.56
2016-06-20T00:49:51.335Z,53.47
2016-06-20T00:50:51.337Z,53.49
2016-06-20T00:51:51.325Z,53.39
2016-06-20T00:52:51.969Z,53.59
2016-06-20T00:53:51.942Z,53.59
2016-06-20T00:54:51.929Z,53.37
2016-06-20T00:55:51.933Z,53.47
2016-06-20T00:56:51.920Z,53.59
2016-06-20T00:57:51.221Z,53.59
2016-06-20T00:58:51.881Z,53.95
2016-06-20T00:59:51.853Z,54.33
2016-06-20T01:00:51.201Z,53.95
2016-06-20T01:01:51.829Z,53.95
2016-06-20T01:02:51.816Z,54.14
2016-06-20T01:03:51.805Z,54.24
2016-06-20T01:04:51.136Z,54.14
2016-06-20T01:05:51.140Z,54.14
2016-06-20T01:06:51.112Z,54.62
2016-06-20T01:07:51.756Z,54.62
2016-06-20T01:08:51.087Z,54.33
2016-06-20T01:09:51.731Z,54.33
2016-06-20T01:10:51.719Z,55.1
2016-06-20T01:11:51.052Z,54.33
2016-06-20T01:12:51.039Z,54.33
2016-06-20T01:13:51.026Z,54.43
2016-06-20T01:14:51.655Z,54.62
2016-06-20T01:15:51.644Z,54.33
2016-06-20T01:16:51.022Z,55.2
2016-06-20T01:17:50.978Z,55.2
2016-06-20T01:18:50.950Z,54.82
2016-06-20T01:19:51.594Z,55.1
2016-06-20T01:20:51.583Z,54.33
2016-06-20T01:21:50.914Z,54.72
2016-06-20T01:22:51.557Z,54.62
2016-06-20T01:23:50.889Z,55.2
2016-06-20T01:24:51.518Z,54.62
2016-06-20T01:25:50.865Z,54.33
2016-06-20T01:26:51.509Z,54.33
2016-06-20T01:27:50.841Z,54.24
2016-06-20T01:28:50.829Z,54.14
2016-06-20T01:29:50.801Z,53.85
2016-06-20T01:30:50.788Z,53.78
2016-06-20T01:31:51.433Z,54.24
2016-06-20T01:32:51.421Z,54.24
2016-06-20T01:33:50.768Z,54.53
2016-06-20T01:34:50.740Z,54.24
2016-06-20T01:35:51.384Z,54.82
2016-06-20T01:36:51.372Z,54.72
2016-06-20T01:37:51.345Z,55.01
2016-06-20T01:38:51.348Z,55.59
2016-06-20T01:39:50.680Z,55.68
2016-06-20T01:40:51.323Z,55.88
2016-06-20T01:41:51.311Z,56.04
2016-06-20T01:42:50.643Z,56.04
2016-06-20T01:43:51.271Z,56.56
2016-06-20T01:44:50.619Z,55.88
2016-06-20T01:45:50.590Z,55.88
2016-06-20T01:46:51.234Z,55.1
2016-06-20T01:47:51.238Z,55.98
2016-06-20T01:48:51.210Z,55.88
2016-06-20T01:49:50.558Z,55.88
2016-06-20T01:50:50.545Z,55.78
2016-06-20T01:51:50.518Z,55.59
2016-06-20T01:52:50.505Z,55.88
2016-06-20T01:53:50.493Z,55.98
2016-06-20T01:54:51.138Z,55.98
2016-06-20T01:55:51.110Z,56.65
2016-06-20T01:56:51.097Z,56.07
2016-06-20T01:57:50.445Z,55.98
2016-06-20T01:58:50.432Z,56.56
2016-06-20T01:59:50.421Z,57.04
2016-06-20T02:00:51.064Z,56.81
2016-06-20T02:01:50.395Z,57.14
2016-06-20T02:02:51.024Z,56.94
2016-06-20T02:03:50.371Z,57.04
2016-06-20T02:04:50.999Z,57.32
2016-06-20T02:05:50.988Z,57.39
2016-06-20T02:06:50.320Z,57.04
2016-06-20T02:07:50.307Z,57.71
2016-06-20T02:08:50.311Z,57.39
2016-06-20T02:09:50.298Z,57.81
2016-06-20T02:10:50.927Z,57.9
2016-06-20T02:11:50.259Z,57.97
2016-06-20T02:12:50.247Z,57.87
2016-06-20T02:13:50.250Z,57.9
2016-06-20T02:14:50.863Z,58.26
2016-06-20T02:15:50.851Z,58.65
2016-06-20T02:16:50.838Z,58.55
2016-06-20T02:17:50.826Z,58.45
2016-06-20T02:18:50.814Z,58.29
2016-06-20T02:19:50.145Z,58.65
2016-06-20T02:20:50.790Z,58.84
2016-06-20T02:21:50.121Z,59.13
2016-06-20T02:22:50.109Z,59.61
2016-06-20T02:23:50.097Z,60
2016-06-20T02:24:50.741Z,60.1
2016-06-20T02:25:50.713Z,59.8
2016-06-20T02:26:50.061Z,59.23
2016-06-20T02:27:50.704Z,59.32
2016-06-20T02:28:50.036Z,58.84
2016-06-20T02:29:50.009Z,59.06
2016-06-20T02:30:50.653Z,58.77
2016-06-20T02:31:50.656Z,59.06
2016-06-20T02:32:50.628Z,59.52
2016-06-20T02:33:49.960Z,59.42
2016-06-20T02:34:49.947Z,59.06
2016-06-20T02:35:49.935Z,59.25
2016-06-20T02:36:49.938Z,59.8
2016-06-20T02:37:50.552Z,59.71
2016-06-20T02:38:49.898Z,60.1
2016-06-20T02:39:50.542Z,60.58
2016-06-20T02:40:50.530Z,60.38
2016-06-20T02:41:49.863Z,60.38
2016-06-20T02:42:49.850Z,60.1
2016-06-20T02:43:50.479Z,60.1
2016-06-20T02:44:50.466Z,59.93
2016-06-20T02:45:49.814Z,59.74
2016-06-20T02:46:50.442Z,59.74
2016-06-20T02:47:49.789Z,59.16
2016-06-20T02:48:50.418Z,60.13
2016-06-20T02:49:50.406Z,60
2016-06-20T02:50:49.736Z,59.8
2016-06-20T02:51:50.381Z,59.35
2016-06-20T02:52:50.369Z,60.13
2016-06-20T02:53:50.357Z,60
2016-06-20T02:54:50.328Z,59.93
2016-06-20T02:55:50.317Z,60.13
2016-06-20T02:56:49.669Z,60.48
2016-06-20T02:57:50.306Z,60.58
2016-06-20T02:58:50.302Z,60.38
2016-06-20T02:59:49.658Z,60.38
2016-06-20T03:00:50.294Z,60.28
2016-06-20T03:01:49.632Z,60.1
2016-06-20T03:02:50.278Z,60.38
2016-06-20T03:03:50.254Z,60.28
2016-06-20T03:04:50.277Z,60.38
2016-06-20T03:05:50.252Z,59.83
2016-06-20T03:06:49.586Z,60.41
2016-06-20T03:07:50.230Z,60.58
2016-06-20T03:08:49.562Z,61.16
2016-06-20T03:09:49.552Z,60.68
2016-06-20T03:10:50.197Z,60.68
2016-06-20T03:11:49.530Z,60.96
2016-06-20T03:12:49.501Z,61.25
2016-06-20T03:13:49.506Z,60.86
2016-06-20T03:14:49.479Z,61.44
2016-06-20T03:15:50.123Z,61.64
2016-06-20T03:16:49.470Z,61.44
2016-06-20T03:17:49.443Z,61.51
2016-06-20T03:18:50.088Z,61.8
2016-06-20T03:19:49.419Z,61.32
2016-06-20T03:20:50.049Z,61.74
2016-06-20T03:21:50.036Z,61.8
2016-06-20T03:22:50.025Z,61.99
2016-06-20T03:23:50.012Z,61.51
2016-06-20T03:24:50.000Z,61.25
2016-06-20T03:25:49.347Z,61.35
2016-06-20T03:26:49.320Z,61.64
2016-06-20T03:27:49.964Z,61.44
2016-06-20T03:28:49.295Z,61.06
2016-06-20T03:29:49.283Z,61.44
2016-06-20T03:30:49.270Z,61.99
2016-06-20T03:31:49.914Z,61.41
2016-06-20T03:32:49.246Z,60.96
2016-06-20T03:33:49.235Z,61.25
2016-06-20T03:34:49.222Z,61.54
2016-06-20T03:35:49.850Z,61.54
2016-06-20T03:36:49.198Z,61.16
2016-06-20T03:37:49.826Z,61.54
2016-06-20T03:38:49.814Z,61.74
2016-06-20T03:39:49.802Z,60.96
2016-06-20T03:40:49.134Z,61.54
2016-06-20T03:41:49.778Z,61.16
2016-06-20T03:42:49.109Z,61.16
2016-06-20T03:43:49.097Z,61.54
2016-06-20T03:44:49.085Z,60.86
2016-06-20T03:45:49.714Z,61.64
2016-06-20T03:46:49.060Z,61.93
2016-06-20T03:47:49.704Z,61.8
2016-06-20T03:48:49.036Z,62.28
2016-06-20T03:49:49.008Z,62.86
2016-06-20T03:50:48.996Z,61.8
2016-06-20T03:51:48.984Z,62.18
2016-06-20T03:52:48.971Z,62.66
2016-06-20T03:53:48.975Z,61.8
2016-06-20T03:54:49.603Z,61.64
2016-06-20T03:55:49.576Z,62.02
2016-06-20T03:56:48.923Z,62.22
2016-06-20T03:57:48.911Z,61.93
2016-06-20T03:58:48.899Z,61.74
2016-06-20T03:59:49.528Z,61.93
2016-06-20T04:00:48.859Z,62.51
2016-06-20T04:01:48.862Z,62.28
2016-06-20T04:02:48.835Z,62.41
2016-06-20T04:03:48.822Z,62.18
2016-06-20T04:04:49.467Z,62.12
2016-06-20T04:05:49.454Z,62.79
2016-06-20T04:06:49.441Z,62.12
2016-06-20T04:07:49.430Z,62.02
2016-06-20T04:08:49.402Z,61.83
2016-06-20T04:09:48.749Z,61.44
2016-06-20T04:10:48.738Z,62.41
2016-06-20T04:11:48.725Z,61.93
2016-06-20T04:12:48.712Z,61.64
2016-06-20T04:13:49.341Z,61.93
2016-06-20T04:14:48.689Z,61.74
2016-06-20T04:15:49.317Z,62.6
2016-06-20T04:16:49.305Z,62.51
2016-06-20T04:17:48.652Z,62.31
2016-06-20T04:18:48.624Z,62.89
2016-06-20T04:19:49.269Z,62.41
2016-06-20T04:20:48.601Z,62.41
2016-06-20T04:21:48.618Z,62.51
2016-06-20T04:22:48.575Z,62.6
2016-06-20T04:23:48.563Z,62.7
2016-06-20T04:24:48.551Z,62.89
2016-06-20T04:25:48.539Z,62.89
2016-06-20T04:26:48.527Z,62.7
2016-06-20T04:27:49.155Z,63.18
2016-06-20T04:28:49.143Z,62.79
2016-06-20T04:29:48.490Z,62.79
2016-06-20T04:30:48.463Z,64.24
2016-06-20T04:31:48.467Z,64.31
2016-06-20T04:32:48.439Z,63.85
2016-06-20T04:33:48.426Z,63.18
2016-06-20T04:34:48.413Z,63.76
2016-06-20T04:35:48.402Z,63.76
2016-06-20T04:36:48.389Z,63.85
2016-06-20T04:37:48.377Z,63.95
2016-06-20T04:38:48.365Z,64.15
2016-06-20T04:39:49.009Z,64.05
2016-06-20T04:40:48.325Z,64.05
2016-06-20T04:41:48.313Z,64.34
2016-06-20T04:42:48.957Z,64.92
2016-06-20T04:43:48.945Z,64.72
2016-06-20T04:44:48.276Z,65.01
2016-06-20T04:45:48.265Z,65.4
2016-06-20T04:46:48.908Z,65.01
2016-06-20T04:47:48.241Z,64.82
2016-06-20T04:48:48.228Z,65.11
2016-06-20T04:49:48.215Z,64.82
2016-06-20T04:50:48.860Z,65.5
2016-06-20T04:51:48.208Z,65.69
2016-06-20T04:52:48.819Z,66.14
2016-06-20T04:53:48.151Z,65.75
2016-06-20T04:54:48.218Z,65.98
2016-06-20T04:55:48.143Z,65.69
2016-06-20T04:56:48.755Z,66.08
2016-06-20T04:57:48.759Z,66.04
2016-06-20T04:58:48.746Z,66.75
2016-06-20T04:59:48.078Z,66.52
2016-06-20T05:00:48.067Z,66.72
2016-06-20T05:01:48.054Z,66.33
2016-06-20T05:02:48.699Z,66.66
2016-06-20T05:03:48.749Z,66.94
2016-06-20T05:04:48.017Z,66.56
2016-06-20T05:05:48.646Z,67.04
2016-06-20T05:06:48.635Z,66.82
2016-06-20T05:07:48.685Z,67.1
2016-06-20T05:08:47.953Z,66.82
2016-06-20T05:09:47.942Z,67.3
2016-06-20T05:10:47.929Z,67.3
2016-06-20T05:11:48.557Z,66.82
2016-06-20T05:12:47.905Z,67
2016-06-20T05:13:47.892Z,67.58
2016-06-20T05:14:47.880Z,67.68
2016-06-20T05:15:48.508Z,67.2
2016-06-20T05:16:48.512Z,67.68
2016-06-20T05:17:48.485Z,67.4
2016-06-20T05:18:47.832Z,67.3
2016-06-20T05:19:48.460Z,67.4
2016-06-20T05:20:47.792Z,68.07
2016-06-20T05:21:47.779Z,68.26
2016-06-20T05:22:47.767Z,67.68
2016-06-20T05:23:47.755Z,68.07
2016-06-20T05:24:48.399Z,67.78
2016-06-20T05:25:47.731Z,67.43
2016-06-20T05:26:47.718Z,67.78
2016-06-20T05:27:48.363Z,68.26
2016-06-20T05:28:48.335Z,67.88
2016-06-20T05:29:47.667Z,67.62
2016-06-20T05:30:48.310Z,67.71
2016-06-20T05:31:47.643Z,68.19
2016-06-20T05:32:47.630Z,67.71
2016-06-20T05:33:48.274Z,68.65
2016-06-20T05:34:48.246Z,68.35
2016-06-20T05:35:48.250Z,68.74
2016-06-20T05:36:48.238Z,68.97
2016-06-20T05:37:47.570Z,67.97
2016-06-20T05:38:47.557Z,67.91
2016-06-20T05:39:47.545Z,68.19
2016-06-20T05:40:48.174Z,67.81
2016-06-20T05:41:47.536Z,68.84
2016-06-20T05:42:48.149Z,68.16
2016-06-20T05:43:48.137Z,67.91
2016-06-20T05:44:48.124Z,67.81
2016-06-20T05:45:47.472Z,68.39
2016-06-20T05:46:48.101Z,68.01
2016-06-20T05:47:47.432Z,67.91
2016-06-20T05:48:47.419Z,68.77
2016-06-20T05:49:47.408Z,68.68
2016-06-20T05:50:47.379Z,68.68
2016-06-20T05:51:48.040Z,68.49
2016-06-20T05:52:48.011Z,68.87
2016-06-20T05:53:48.000Z,68.29
2016-06-20T05:54:47.347Z,68.77
2016-06-20T05:55:47.319Z,68.19
2016-06-20T05:56:47.307Z,68.01
2016-06-20T05:57:47.294Z,68.59
2016-06-20T05:58:47.939Z,69.07
2016-06-20T05:59:47.926Z,69.16
2016-06-20T06:00:47.899Z,69.35
2016-06-20T06:01:47.247Z,69.55
2016-06-20T06:02:47.875Z,69.64
2016-06-20T06:03:47.221Z,69.64
2016-06-20T06:04:47.194Z,69.26
2016-06-20T06:05:47.838Z,69.61
2016-06-20T06:06:47.826Z,70.28
2016-06-20T06:07:47.813Z,70.28
2016-06-20T06:08:47.817Z,70.09
2016-06-20T06:09:47.149Z,69.61
2016-06-20T06:10:47.120Z,69.71
2016-06-20T06:11:47.109Z,70.38
2016-06-20T06:12:47.096Z,69.9
2016-06-20T06:13:47.725Z,69.61
2016-06-20T06:14:47.712Z,70.38
2016-06-20T06:15:47.701Z,69.71
2016-06-20T06:16:47.049Z,69.35
2016-06-20T06:17:47.035Z,68.49
2016-06-20T06:18:47.009Z,69.64
2016-06-20T06:19:47.637Z,69.26
2016-06-20T06:21:18.983Z,69.26
2016-06-20T06:21:47.628Z,69.07
2016-06-20T06:22:46.959Z,68.49
2016-06-20T06:23:46.948Z,68.49
2016-06-20T06:24:46.935Z,69.26
2016-06-20T06:25:46.922Z,69.26
2016-06-20T06:26:46.911Z,69.16
2016-06-20T06:27:46.883Z,68.59
2016-06-20T06:28:56.136Z,69.35
2016-06-20T06:29:47.514Z,68.87
2016-06-20T06:30:47.503Z,68.97
2016-06-20T06:31:47.475Z,68.77
2016-06-20T06:32:47.479Z,68.77
2016-06-20T06:33:47.482Z,68.81
2016-06-20T06:34:46.797Z,68.59
2016-06-20T06:35:47.442Z,68.29
2016-06-20T06:36:46.773Z,68.71
2016-06-20T06:37:47.417Z,68.01
2016-06-20T06:38:47.405Z,67.91
2016-06-20T06:39:46.737Z,67.65
2016-06-20T06:40:47.381Z,68.13
2016-06-20T06:41:46.712Z,68.04
2016-06-20T06:42:46.700Z,67.55
2016-06-20T06:43:47.328Z,67.46
2016-06-20T06:44:46.661Z,66.97
2016-06-20T06:45:47.305Z,66.97
2016-06-20T06:46:46.652Z,67.85
2016-06-20T06:47:46.624Z,67.75
2016-06-20T06:48:47.252Z,67.27
2016-06-20T06:49:46.600Z,67.55
2016-06-20T06:50:46.587Z,67.27
2016-06-20T06:51:47.216Z,67.65
2016-06-20T06:52:47.204Z,67.36
2016-06-20T06:53:46.551Z,67.85
2016-06-20T06:54:46.539Z,66.88
2016-06-20T06:55:46.511Z,66.97
2016-06-20T06:56:47.155Z,67.01
2016-06-20T06:57:46.518Z,67.36
2016-06-20T06:58:46.490Z,67.46
2016-06-20T06:59:46.462Z,67.75
2016-06-20T07:00:47.107Z,68.13
2016-06-20T07:01:47.095Z,68.23
2016-06-20T07:02:47.082Z,67.46
2016-06-20T07:03:46.414Z,67.36
2016-06-20T07:04:46.402Z,67.65
2016-06-20T07:05:46.389Z,67.01
2016-06-20T07:06:46.392Z,67.01
2016-06-20T07:07:46.365Z,67.3
2016-06-20T07:08:46.994Z,66.91
2016-06-20T07:09:46.982Z,67.01
2016-06-20T07:10:46.969Z,67.49
2016-06-20T07:11:46.317Z,66.43
2016-06-20T07:12:46.288Z,66.63
2016-06-20T07:13:46.277Z,67.3
2016-06-20T07:14:46.920Z,66.33
2016-06-20T07:15:46.908Z,66.53
2016-06-20T07:16:46.240Z,66.43
2016-06-20T07:17:46.260Z,67.01
2016-06-20T07:18:46.872Z,67.3
2016-06-20T07:19:46.203Z,66.75
2016-06-20T07:20:46.191Z,66.56
2016-06-20T07:21:46.835Z,67.14
2016-06-20T07:22:46.183Z,66.66
2016-06-20T07:23:46.812Z,66.75
2016-06-20T07:24:46.142Z,66.94
2016-06-20T07:25:46.115Z,66.66
2016-06-20T07:26:46.758Z,66.56
2016-06-20T07:27:46.106Z,66.56
2016-06-20T07:28:46.094Z,67.04
2016-06-20T07:29:46.072Z,66.56
2016-06-20T07:30:46.724Z,66.36
2016-06-20T07:31:46.079Z,66.46
2016-06-20T07:32:46.074Z,66.17
2016-06-20T07:33:46.053Z,65.78
2016-06-20T07:34:46.685Z,65.72
2016-06-20T07:35:46.691Z,65.88
2016-06-20T07:36:46.039Z,65.53
2016-06-20T07:37:46.702Z,65.05
2016-06-20T07:38:46.005Z,66.01
2016-06-20T07:39:46.650Z,65.92
2016-06-20T07:40:46.640Z,66.2
2016-06-20T07:41:46.612Z,65.34
2016-06-20T07:42:45.960Z,65.05
2016-06-20T07:43:46.590Z,65.63
2016-06-20T07:44:45.938Z,65.43
2016-06-20T07:45:46.582Z,65.82
2016-06-20T07:46:45.914Z,65.24
2016-06-20T07:47:45.919Z,64.56
2016-06-20T07:48:46.562Z,64.98
2016-06-20T07:49:46.519Z,65.34
2016-06-20T07:50:45.851Z,64.37
2016-06-20T07:51:45.838Z,64.76
2016-06-20T07:52:45.858Z,65.34
2016-06-20T07:53:45.814Z,64.37
2016-06-20T07:54:46.474Z,64.79
2016-06-20T07:55:45.806Z,65.47
2016-06-20T07:56:46.434Z,64.69
2016-06-20T07:57:45.782Z,65.37
2016-06-20T07:58:45.753Z,64.31
2016-06-20T07:59:46.398Z,64.01
2016-06-20T08:00:45.745Z,63.92
2016-06-20T08:01:45.717Z,64.24
2016-06-20T08:02:45.752Z,64.24
2016-06-20T08:03:46.349Z,63.82
2016-06-20T08:04:46.337Z,64.34
2016-06-20T08:05:45.669Z,63.95
2016-06-20T08:06:45.656Z,63.95
2016-06-20T08:07:46.300Z,63.46
2016-06-20T08:08:46.304Z,63.95
2016-06-20T08:09:46.291Z,63.95
2016-06-20T08:10:46.342Z,63.56
2016-06-20T08:11:46.252Z,63.37
2016-06-20T08:12:46.239Z,64.04
2016-06-20T08:13:46.243Z,62.98
2016-06-20T08:14:45.558Z,62.72
2016-06-20T08:15:45.547Z,62.92
2016-06-20T08:16:45.535Z,63.11
2016-06-20T08:17:45.538Z,62.82
2016-06-20T08:18:45.510Z,62.63
2016-06-20T08:19:45.498Z,63.01
2016-06-20T08:20:45.486Z,62.53
2016-06-20T08:21:45.473Z,63.04
2016-06-20T08:22:45.461Z,62.63
2016-06-20T08:23:46.089Z,63.21
2016-06-20T08:24:45.437Z,62.75
2016-06-20T08:25:46.081Z,62.14
2016-06-20T08:26:45.413Z,62.27
2016-06-20T08:27:45.400Z,61.98
2016-06-20T08:28:46.044Z,62.27
2016-06-20T08:29:45.392Z,62.17
2016-06-20T08:30:46.021Z,61.79
2016-06-20T08:31:45.352Z,61.79
2016-06-20T08:32:45.355Z,61.43
2016-06-20T08:33:45.360Z,61.72
2016-06-20T08:34:45.972Z,60.94
2016-06-20T08:35:45.303Z,61.24
2016-06-20T08:36:45.947Z,61.43
2016-06-20T08:37:45.279Z,61.43
2016-06-20T08:38:45.923Z,60.85
2016-06-20T08:39:45.911Z,61.04
2016-06-20T08:40:45.899Z,61.85
2016-06-20T08:41:45.886Z,61.72
2016-06-20T08:42:45.874Z,61.91
2016-06-20T08:43:45.206Z,62.04
2016-06-20T08:44:45.866Z,61.26
2016-06-20T08:45:45.838Z,61.94
2016-06-20T08:46:45.185Z,62.82
2016-06-20T08:47:45.172Z,62.91
2016-06-20T08:48:45.161Z,63.01
2016-06-20T08:49:45.790Z,62.23
2016-06-20T08:50:45.777Z,61.85
2016-06-20T08:51:45.125Z,61.46
2016-06-20T08:52:45.097Z,61.85
2016-06-20T08:53:45.100Z,61.94
2016-06-20T08:54:45.088Z,62.04
2016-06-20T08:55:45.076Z,62.04
2016-06-20T08:56:45.704Z,62.04
2016-06-20T08:57:45.692Z,61.75
2016-06-20T08:58:45.024Z,61.75
2016-06-20T08:59:45.011Z,61.68
2016-06-20T09:00:45.030Z,61.26
2016-06-20T09:01:45.003Z,60.81
2016-06-20T09:02:44.991Z,61.68
2016-06-20T09:03:45.635Z,61.36
2016-06-20T09:04:45.623Z,60.81
2016-06-20T09:05:45.609Z,60.81
2016-06-20T09:06:44.958Z,60.61
2016-06-20T09:07:44.946Z,60.61
2016-06-20T09:08:45.574Z,59.64
2016-06-20T09:09:45.562Z,59.67
2016-06-20T09:10:45.550Z,59.58
2016-06-20T09:11:44.881Z,59.38
2016-06-20T09:12:45.526Z,59.48
2016-06-20T09:13:44.872Z,59.58
2016-06-20T09:14:45.501Z,59.19
2016-06-20T09:15:44.849Z,60.06
2016-06-20T09:16:44.836Z,59.38
2016-06-20T09:17:45.464Z,59.38
2016-06-20T09:18:45.468Z,59.28
2016-06-20T09:19:45.471Z,59.12
2016-06-20T09:20:44.819Z,58.03
2016-06-20T09:21:44.790Z,58.05
2016-06-20T09:22:45.451Z,58.05
2016-06-20T09:23:45.422Z,58.25
2016-06-20T09:24:44.754Z,57.67
2016-06-20T09:25:44.726Z,57.86
2016-06-20T09:26:45.387Z,57.57
2016-06-20T09:27:44.718Z,57.47
2016-06-20T09:28:45.361Z,57.57
2016-06-20T09:29:45.334Z,57.28
2016-06-20T09:30:44.681Z,57.28
2016-06-20T09:31:45.341Z,56.98
2016-06-20T09:32:45.298Z,56.98
2016-06-20T09:33:45.285Z,57.28
2016-06-20T09:34:45.304Z,57.28
2016-06-20T09:35:44.621Z,57.18
2016-06-20T09:36:44.608Z,56.72
2016-06-20T09:37:44.595Z,56.34
2016-06-20T09:38:45.240Z,56.72
2016-06-20T09:39:45.227Z,56.52
2016-06-20T09:40:44.560Z,56.04
2016-06-20T09:41:45.203Z,55.94
2016-06-20T09:42:44.582Z,55.27
2016-06-20T09:43:44.539Z,55.49
2016-06-20T09:44:45.167Z,55.68
2016-06-20T09:45:44.515Z,55.1
2016-06-20T09:46:45.159Z,55
2016-06-20T09:47:45.147Z,55.39
2016-06-20T09:48:45.134Z,54.61
2016-06-20T09:49:44.466Z,54.9
2016-06-20T09:50:44.453Z,55.1
2016-06-20T09:51:44.457Z,54.32
2016-06-20T09:52:45.085Z,54.54
2016-06-20T09:53:45.089Z,54.42
2016-06-20T09:54:45.061Z,54.13
2016-06-20T09:55:45.049Z,54.35
2016-06-20T09:56:45.052Z,53.96
2016-06-20T09:57:45.040Z,52.69
2016-06-20T09:58:44.384Z,53.08
2016-06-20T09:59:44.372Z,52.01
2016-06-20T10:00:44.360Z,52.23
2016-06-20T10:01:44.347Z,52.72
2016-06-20T10:02:44.335Z,52.33
2016-06-20T10:03:44.982Z,51.75
2016-06-20T10:04:44.986Z,51.75
2016-06-20T10:05:44.314Z,51.65
2016-06-20T10:06:44.303Z,51.45
2016-06-20T10:07:44.946Z,51.36
2016-06-20T10:08:59.094Z,51.19
2016-06-20T10:09:44.922Z,51.39
2016-06-20T10:10:44.254Z,50.97
2016-06-20T10:11:44.898Z,51.09
2016-06-20T10:12:44.558Z,50.9
2016-06-20T10:13:44.264Z,51.48
2016-06-20T10:14:44.877Z,51.48
2016-06-20T10:15:44.848Z,51.29
2016-06-20T10:16:44.197Z,50.02
2016-06-20T10:17:44.185Z,51.19
2016-06-20T10:18:44.828Z,51.09
2016-06-20T10:19:44.832Z,50.6
2016-06-20T10:20:44.148Z,50.12
2016-06-20T10:21:44.807Z,49.66
2016-06-20T10:22:44.139Z,50.14
2016-06-20T10:23:44.159Z,49.66
2016-06-20T10:24:44.787Z,49.17
2016-06-20T10:25:44.774Z,48.12
2016-06-20T10:26:44.091Z,48.22
2016-06-20T10:27:44.734Z,47.34
2016-06-20T10:28:44.722Z,47.34
2016-06-20T10:29:44.069Z,47.25
2016-06-20T10:30:44.714Z,47.05
2016-06-20T10:31:44.717Z,46.97
2016-06-20T10:32:44.033Z,46.49
2016-06-20T10:33:44.677Z,46
2016-06-20T10:34:44.040Z,46.3
2016-06-20T10:35:44.653Z,46.31
2016-06-20T10:36:44.657Z,45.92
2016-06-20T10:37:44.004Z,45.44
2016-06-20T10:38:44.632Z,45.26
2016-06-20T10:39:43.979Z,45.07
2016-06-20T10:40:44.623Z,43.99
2016-06-20T10:41:44.610Z,43.71
2016-06-20T10:42:44.599Z,43.71
2016-06-20T10:43:44.603Z,43.92
2016-06-20T10:44:44.590Z,43.43
2016-06-20T10:45:44.624Z,43.43
2016-06-20T10:46:43.910Z,43.65
2016-06-20T10:47:43.914Z,43.95
2016-06-20T10:48:44.651Z,43.53
2016-06-20T10:49:43.983Z,43.65
2016-06-20T10:50:43.955Z,42.68
2016-06-20T10:51:44.584Z,42.68
2016-06-20T10:52:43.868Z,42.4
2016-06-20T10:53:43.855Z,42.11
2016-06-20T10:54:43.859Z,41.91
2016-06-20T10:55:44.503Z,41.72
2016-06-20T10:56:44.491Z,41.13
2016-06-20T10:57:43.823Z,41.23
2016-06-20T10:58:44.467Z,40.27
2016-06-20T10:59:44.470Z,40.19
2016-06-20T11:00:44.442Z,40.29
2016-06-20T11:01:43.774Z,40
2016-06-20T11:02:44.512Z,39.23
2016-06-20T11:04:15.784Z,38.55
2016-06-20T11:04:44.409Z,38.57
2016-06-20T11:05:43.757Z,38.37
2016-06-20T11:06:44.400Z,38.47
2016-06-20T11:07:44.389Z,38.29
2016-06-20T11:08:44.673Z,38.29
2016-06-20T11:09:44.489Z,37.9
2016-06-20T11:10:43.868Z,38
2016-06-20T11:11:43.715Z,37.51
2016-06-20T11:12:43.734Z,37.71
2016-06-20T11:13:44.346Z,36.45
2016-06-20T11:14:44.335Z,35.76
2016-06-20T11:15:44.338Z,35.39
2016-06-20T11:16:43.670Z,35.39
2016-06-20T11:17:44.314Z,35.68
2016-06-20T11:18:43.661Z,35.41
2016-06-20T11:19:43.961Z,34.72
2016-06-20T11:20:44.309Z,33.77
2016-06-20T11:21:43.640Z,35.14
2016-06-20T11:22:44.644Z,35.03
2016-06-20T11:23:44.272Z,34.66
2016-06-20T11:24:43.635Z,35.23
2016-06-20T11:25:44.263Z,35.23
2016-06-20T11:26:44.252Z,34.05
2016-06-20T11:27:43.583Z,34.15
2016-06-20T11:28:43.586Z,34.16
2016-06-20T11:29:44.230Z,34.16
2016-06-20T11:30:44.218Z,33.58
2016-06-20T11:31:43.566Z,33.39
2016-06-20T11:32:44.428Z,33.39
2016-06-20T11:33:44.212Z,33.69
2016-06-20T11:34:43.591Z,33.67
2016-06-20T11:35:44.250Z,33.39
2016-06-20T11:36:44.270Z,33.29
2016-06-20T11:37:44.180Z,33.2
2016-06-20T11:38:44.183Z,33.22
2016-06-20T11:39:43.514Z,33.59
2016-06-20T11:40:43.503Z,33.79
2016-06-20T11:41:43.506Z,33.1
2016-06-20T11:42:43.494Z,32.62
2016-06-20T11:43:43.498Z,32.93
2016-06-20T11:44:44.142Z,32.53
2016-06-20T11:45:44.176Z,32.05
2016-06-20T11:46:43.758Z,31.85
2016-06-20T11:47:44.136Z,31.28
2016-06-20T11:48:44.125Z,30.9
2016-06-20T11:49:44.143Z,29.83
2016-06-20T11:50:44.178Z,29.57
2016-06-20T11:51:44.166Z,27.89
2016-06-20T11:52:44.122Z,27.91
2016-06-20T11:53:43.484Z,28.7
2016-06-20T11:54:43.473Z,28.21
2016-06-20T11:55:43.477Z,28.1
2016-06-20T11:56:44.120Z,27.51
2016-06-20T11:57:53.468Z,26.24
2016-06-20T11:58:44.127Z,26.07
2016-06-20T12:11:24.748Z,25.02
2016-06-20T12:11:32.060Z,22.08
2016-06-20T12:12:36.518Z,21.1
2016-06-20T12:13:30.553Z,21.78
2016-06-20T12:14:30.525Z,22.06
2016-06-20T12:15:29.873Z,20.79
2016-06-20T12:16:30.532Z,20.81
2016-06-20T12:17:30.583Z,20.21
2016-06-20T12:18:29.899Z,20.01
2016-06-20T12:19:30.559Z,20.72
2016-06-20T12:20:29.891Z,20.62
2016-06-20T12:21:29.911Z,20.22
2016-06-20T12:22:30.570Z,20.04
2016-06-20T12:23:30.573Z,19.46
2016-06-20T12:24:30.577Z,19.74
2016-06-20T12:25:29.924Z,19.62
2016-06-20T12:26:29.927Z,20.42
2016-06-20T12:27:30.587Z,19.53
2016-06-20T12:28:29.949Z,18.96
2016-06-20T12:29:30.625Z,18.77
2016-06-20T12:30:29.956Z,18.66
2016-06-20T12:31:30.664Z,18.16
2016-06-20T12:32:29.979Z,16.67
2016-06-20T12:33:29.983Z,16.3
2016-06-20T12:34:30.611Z,16.01
2016-06-20T12:35:30.646Z,16.72
2016-06-20T12:36:29.994Z,16.81
2016-06-20T12:37:30.669Z,17.49
2016-06-20T12:38:30.188Z,17.58
2016-06-20T12:39:30.051Z,16.68
2016-06-20T12:40:30.866Z,17.08
2016-06-20T12:41:30.744Z,17.98
2016-06-20T12:42:30.247Z,17.2
2016-06-20T12:43:30.049Z,17
2016-06-20T12:44:30.052Z,16.51
2016-06-20T12:45:30.712Z,16.59
2016-06-20T12:46:30.715Z,15.91
2016-06-20T12:47:30.719Z,15.32
2016-06-20T12:48:30.082Z,16.41
2016-06-20T12:49:30.741Z,17.13
2016-06-20T12:50:30.104Z,17.6
2016-06-20T12:51:30.748Z,16.22
2016-06-20T12:52:30.752Z,15.74
2016-06-20T12:53:30.755Z,15.16
2016-06-20T12:54:30.774Z,14.66
2016-06-20T12:55:30.137Z,15.96
2016-06-20T12:56:30.125Z,16.06
2016-06-20T12:57:30.800Z,16.03
2016-06-20T12:58:30.147Z,15.03
2016-06-20T12:59:30.198Z,15.65
2016-06-20T13:00:30.810Z,15.16
2016-06-20T13:01:30.174Z,14.26
2016-06-20T13:02:30.833Z,14.96
2016-06-20T13:03:30.258Z,14.06
2016-06-20T13:04:30.856Z,14.87
2016-06-20T13:05:30.203Z,14.68
2016-06-20T13:06:30.863Z,14.18